createdAt,value
2019-01-06T00:00:06.355Z,101380.00
2019-01-06T00:05:09.516Z,101389.00
2019-01-06T00:10:29.675Z,101390.00
2019-01-06T00:15:49.433Z,101389.00
2019-01-06T00:20:58.559Z,101393.00
2019-01-06T00:26:07.527Z,101386.00
2019-01-06T00:31:10.748Z,101397.00
2019-01-06T00:36:32.092Z,101401.00
2019-01-06T00:41:41.045Z,101399.00
2019-01-06T00:46:50.158Z,101407.00
2019-01-06T00:52:02.468Z,101407.00
2019-01-06T00:57:05.628Z,101407.00
2019-01-06T01:02:08.774Z,101424.00
2019-01-06T01:07:29.922Z,101414.00
2019-01-06T01:12:49.746Z,101422.00
2019-01-06T01:18:02.092Z,101418.00
2019-01-06T01:23:17.600Z,101424.00
2019-01-06T01:28:21.010Z,101424.00
2019-01-06T01:33:41.010Z,101415.00
2019-01-06T01:38:59.491Z,101418.00
2019-01-06T01:44:09.012Z,101424.00
2019-01-06T01:49:29.306Z,101451.00
2019-01-06T01:54:38.504Z,101452.00
2019-01-06T01:59:58.889Z,101427.00
2019-01-06T02:05:19.105Z,101416.00
2019-01-06T02:10:22.425Z,101432.00
2019-01-06T02:15:34.780Z,101439.00
2019-01-06T02:20:40.808Z,101425.00
2019-01-06T02:25:49.606Z,101419.00
2019-01-06T02:31:04.564Z,101410.00
2019-01-06T02:36:13.391Z,101404.00
2019-01-06T02:41:33.363Z,101411.00
2019-01-06T02:46:39.374Z,101415.00
2019-01-06T02:51:45.460Z,101409.00
2019-01-06T02:57:05.284Z,101415.00
2019-01-06T03:02:11.083Z,101402.00
2019-01-06T03:07:30.988Z,101419.00
2019-01-06T03:12:34.127Z,101404.00
2019-01-06T03:17:43.275Z,101387.00
2019-01-06T03:22:55.431Z,101372.00
2019-01-06T03:28:15.202Z,101373.00
2019-01-06T03:33:33.371Z,101380.00
2019-01-06T03:38:53.124Z,101377.00
2019-01-06T03:43:59.145Z,101382.00
2019-01-06T03:49:05.168Z,101378.00
2019-01-06T03:54:23.561Z,101369.00
2019-01-06T03:59:38.751Z,101379.00
2019-01-06T04:04:47.649Z,101383.00
2019-01-06T04:09:59.584Z,101390.00
2019-01-06T04:15:20.785Z,101394.00
2019-01-06T04:20:23.927Z,101406.00
2019-01-06T04:25:43.633Z,101390.00
2019-01-06T04:30:55.891Z,101390.00
2019-01-06T04:36:15.598Z,101387.00
2019-01-06T04:41:18.749Z,101399.00
2019-01-06T04:46:27.835Z,101402.00
2019-01-06T04:51:36.974Z,101395.00
2019-01-06T04:56:58.429Z,101408.00
2019-01-06T05:02:18.583Z,101401.00
2019-01-06T05:07:38.308Z,101405.00
2019-01-06T05:12:44.340Z,101404.00
2019-01-06T05:18:04.055Z,101405.00
2019-01-06T05:23:23.836Z,101410.00
2019-01-06T05:28:41.914Z,101416.00
2019-01-06T05:33:53.710Z,101416.00
2019-01-06T05:38:56.855Z,101404.00
2019-01-06T05:44:11.897Z,101407.00
2019-01-06T05:49:31.781Z,101411.00
2019-01-06T05:54:50.247Z,101406.00
2019-01-06T06:00:11.764Z,101410.00
2019-01-06T06:05:17.841Z,101405.00
2019-01-06T06:10:21.003Z,101407.00
2019-01-06T06:15:29.842Z,101407.00
2019-01-06T06:20:35.957Z,101412.00
2019-01-06T06:25:42.071Z,101403.00
2019-01-06T06:30:45.216Z,101398.00
2019-01-06T06:35:54.244Z,101396.00
2019-01-06T06:41:00.292Z,101405.00
2019-01-06T06:46:09.210Z,101415.00
2019-01-06T06:51:21.452Z,101404.00
2019-01-06T06:56:27.195Z,101408.00
2019-01-06T07:01:37.977Z,101412.00
2019-01-06T07:06:47.052Z,101423.00
2019-01-06T07:11:52.918Z,101436.00
2019-01-06T07:17:46.526Z,101442.00
2019-01-06T07:22:52.318Z,101460.00
2019-01-06T07:28:02.212Z,101465.00
2019-01-06T07:33:05.344Z,101479.00
2019-01-06T07:38:14.224Z,101479.00
2019-01-06T07:43:20.449Z,101493.00
2019-01-06T07:48:30.679Z,101482.00
2019-01-06T07:53:39.483Z,101480.00
2019-01-06T07:58:48.416Z,101477.00
2019-01-06T08:03:57.723Z,101483.00
2019-01-06T08:09:06.594Z,101480.00
2019-01-06T08:14:21.871Z,101491.00
2019-01-06T08:19:33.963Z,101482.00
2019-01-06T08:24:42.822Z,101478.00
2019-01-06T08:30:00.979Z,101481.00
2019-01-06T08:35:21.098Z,101502.00
2019-01-06T08:40:42.567Z,101502.00
2019-01-06T08:45:54.829Z,101507.00
2019-01-06T08:51:04.120Z,101505.00
2019-01-06T08:56:16.155Z,101505.00
2019-01-06T09:01:19.379Z,101523.00
2019-01-06T09:06:39.124Z,101541.00
2019-01-06T09:11:42.258Z,101545.00
2019-01-06T09:16:45.504Z,101547.00
2019-01-06T09:21:51.288Z,101541.00
2019-01-06T09:27:09.716Z,101551.00
2019-01-06T09:32:29.411Z,101542.00
2019-01-06T09:37:49.107Z,101552.00
2019-01-06T09:43:01.031Z,101561.00
2019-01-06T09:48:20.849Z,101551.00
2019-01-06T09:53:24.003Z,101555.00
2019-01-06T09:58:39.427Z,101545.00
2019-01-06T10:03:42.563Z,101562.00
2019-01-06T10:08:54.823Z,101553.00
2019-01-06T10:13:57.965Z,101560.00
2019-01-06T10:19:16.204Z,101555.00
2019-01-06T10:24:25.278Z,101563.00
2019-01-06T10:29:31.483Z,101550.00
2019-01-06T10:34:34.636Z,101564.00
2019-01-06T10:39:54.763Z,101547.00
2019-01-06T10:45:13.164Z,101542.00
2019-01-06T10:50:16.331Z,101556.00
2019-01-06T10:55:28.184Z,101562.00
2019-01-06T11:00:46.318Z,101557.00
2019-01-06T11:05:49.451Z,101563.00
2019-01-06T11:11:09.584Z,101559.00
2019-01-06T11:16:21.558Z,101568.00
2019-01-06T11:21:27.314Z,101574.00
2019-01-06T11:26:36.632Z,101576.00
2019-01-06T11:31:39.805Z,101570.00
2019-01-06T11:36:48.915Z,101569.00
2019-01-06T11:42:07.479Z,101572.00
2019-01-06T11:47:27.498Z,101568.00
2019-01-06T11:52:30.672Z,101556.00
2019-01-06T11:57:50.326Z,101563.00
2019-01-06T12:03:08.689Z,101564.00
2019-01-06T12:08:11.963Z,101554.00
2019-01-06T12:13:15.107Z,101568.00
2019-01-06T12:18:30.385Z,101570.00
2019-01-06T12:23:33.574Z,101564.00
2019-01-06T12:28:53.478Z,101566.00
2019-01-06T12:34:02.457Z,101568.00
2019-01-06T12:39:09.313Z,101563.00
2019-01-06T12:44:28.968Z,101574.00
2019-01-06T12:49:48.723Z,101578.00
2019-01-06T12:54:54.509Z,101582.00
2019-01-06T13:00:06.814Z,101577.00
2019-01-06T13:05:19.235Z,101586.00
2019-01-06T13:10:34.686Z,101591.00
2019-01-06T13:15:37.882Z,101592.00
2019-01-06T13:20:43.924Z,101601.00
2019-01-06T13:25:47.451Z,101604.00
2019-01-06T13:30:56.622Z,101626.00
2019-01-06T13:36:05.811Z,101620.00
2019-01-06T13:41:26.086Z,101633.00
2019-01-06T13:46:29.872Z,101636.00
2019-01-06T13:51:44.871Z,101634.00
2019-01-06T13:56:57.046Z,101637.00
2019-01-06T14:02:16.804Z,101646.00
2019-01-06T14:07:32.255Z,101635.00
2019-01-06T14:12:52.278Z,101651.00
2019-01-06T14:18:12.663Z,101653.00
2019-01-06T14:23:22.084Z,101658.00
2019-01-06T14:28:25.724Z,101658.00
2019-01-06T14:33:45.447Z,101657.00
2019-01-06T14:38:51.516Z,101666.00
2019-01-06T14:44:12.499Z,101670.00
2019-01-06T14:49:18.516Z,101668.00
2019-01-06T14:54:36.639Z,101669.00
2019-01-06T14:59:39.829Z,101674.00
2019-01-06T15:04:49.574Z,101673.00
2019-01-06T15:09:53.227Z,101662.00
2019-01-06T15:20:12.263Z,101680.00
2019-01-06T15:25:21.675Z,101678.00
2019-01-06T15:30:42.022Z,101682.00
2019-01-06T15:35:45.203Z,101690.00
2019-01-06T15:40:48.387Z,101686.00
2019-01-06T15:45:51.559Z,101689.00
2019-01-06T15:51:11.249Z,101684.00
2019-01-06T15:56:23.584Z,101689.00
2019-01-06T16:01:38.908Z,101697.00
2019-01-06T16:06:48.142Z,101691.00
2019-01-06T16:11:51.331Z,101695.00
2019-01-06T16:16:57.414Z,101659.00
2019-01-06T16:22:00.585Z,101706.00
2019-01-06T16:27:09.678Z,101708.00
2019-01-06T16:32:12.958Z,101709.00
2019-01-06T16:37:16.114Z,101701.00
2019-01-06T16:42:21.965Z,101702.00
2019-01-06T16:47:34.135Z,101705.00
2019-01-06T16:52:43.824Z,101702.00
2019-01-06T16:58:04.196Z,101710.00
2019-01-06T17:03:07.898Z,101711.00
2019-01-06T17:08:17.114Z,101717.00
2019-01-06T17:13:32.716Z,101717.00
2019-01-06T17:18:44.929Z,101714.00
2019-01-06T17:23:54.091Z,101705.00
2019-01-06T17:29:15.774Z,101710.00
2019-01-06T17:34:30.968Z,101704.00
2019-01-06T17:39:49.345Z,101696.00
2019-01-06T17:45:09.120Z,101708.00
2019-01-06T17:50:29.251Z,101718.00
2019-01-06T17:55:32.422Z,101706.00
2019-01-06T18:00:38.236Z,101699.00
2019-01-06T18:05:53.651Z,101720.00
2019-01-06T18:10:56.829Z,101738.00
2019-01-06T18:16:00.026Z,101730.00
2019-01-06T18:21:17.997Z,101734.00
2019-01-06T18:26:36.172Z,101749.00
2019-01-06T18:31:42.173Z,101733.00
2019-01-06T18:36:51.251Z,101730.00
2019-01-06T18:42:03.383Z,101735.00
2019-01-06T18:47:09.447Z,101743.00
2019-01-06T18:52:24.827Z,101739.00
2019-01-06T18:57:34.093Z,101719.00
2019-01-06T19:02:46.369Z,101738.00
2019-01-06T19:08:06.308Z,101745.00
2019-01-06T19:13:12.478Z,101743.00
2019-01-06T19:18:15.668Z,101744.00
2019-01-06T19:23:35.433Z,101743.00
2019-01-06T19:28:55.150Z,101742.00
2019-01-06T19:34:11.191Z,101752.00
2019-01-06T19:39:23.805Z,101750.00
2019-01-06T19:44:44.495Z,101750.00
2019-01-06T19:49:50.626Z,101760.00
2019-01-06T19:54:57.138Z,101764.00
2019-01-06T20:00:17.317Z,101778.00
2019-01-06T20:05:23.380Z,101773.00
2019-01-06T20:10:32.631Z,101774.00
2019-01-06T20:15:52.338Z,101777.00
2019-01-06T20:20:55.551Z,101781.00
2019-01-06T20:26:15.252Z,101778.00
2019-01-06T20:31:21.779Z,101771.00
2019-01-06T20:36:26.370Z,101782.00
2019-01-06T20:41:46.854Z,101784.00
2019-01-06T20:47:02.513Z,101782.00
2019-01-06T20:52:23.144Z,101784.00
2019-01-06T20:57:43.889Z,101786.00
2019-01-06T21:02:56.586Z,101787.00
2019-01-06T21:07:59.752Z,101776.00
2019-01-06T21:13:19.773Z,101781.00
2019-01-06T21:18:39.903Z,101784.00
2019-01-06T21:23:52.238Z,101777.00
2019-01-06T21:29:03.003Z,101789.00
2019-01-06T21:34:12.226Z,101793.00
2019-01-06T21:39:15.643Z,101801.00
2019-01-06T21:44:21.484Z,101790.00
2019-01-06T21:49:24.678Z,101799.00
2019-01-06T21:54:44.577Z,101795.00
2019-01-06T21:59:50.593Z,101800.00
2019-01-06T22:05:05.685Z,101793.00
2019-01-06T22:10:15.213Z,101790.00
2019-01-06T22:15:21.297Z,101796.00
2019-01-06T22:20:36.188Z,101789.00
2019-01-06T22:25:54.344Z,101784.00
2019-01-06T22:31:14.326Z,101791.00
2019-01-06T22:36:23.422Z,101781.00
2019-01-06T22:41:44.993Z,101784.00
2019-01-06T22:47:00.036Z,101781.00
2019-01-06T22:52:19.903Z,101772.00
2019-01-06T22:57:25.694Z,101771.00
2019-01-06T23:02:28.839Z,101778.00
2019-01-06T23:07:41.020Z,101770.00
2019-01-06T23:12:44.315Z,101776.00
2019-01-06T23:18:03.941Z,101785.00
2019-01-06T23:23:23.932Z,101780.00
2019-01-06T23:28:32.997Z,101785.00
2019-01-06T23:33:53.025Z,101785.00
2019-01-06T23:39:08.066Z,101784.00
2019-01-06T23:44:14.304Z,101787.00
2019-01-06T23:49:17.441Z,101789.00
2019-01-06T23:54:23.359Z,101794.00
2019-01-06T23:59:43.027Z,101785.00
